sensor_id;sensor_type;location;lat;lon;timestamp;temperature;humidity
40756;DHT22;26461;45.630;9.418;2023-02-28T00:01:14;5.50;99.90
40756;DHT22;26461;45.630;9.418;2023-02-28T00:04:25;5.50;99.90
40756;DHT22;26461;45.630;9.418;2023-02-28T00:07:35;5.50;99.90
40756;DHT22;26461;45.630;9.418;2023-02-28T00:10:45;5.50;99.90
40756;DHT22;26461;45.630;9.418;2023-02-28T00:13:51;5.50;99.90
40756;DHT22;26461;45.630;9.418;2023-02-28T00:17:01;5.50;99.90
40756;DHT22;26461;45.630;9.418;2023-02-28T00:20:12;5.50;99.90
40756;DHT22;26461;45.630;9.418;2023-02-28T00:23:22;5.40;99.90
40756;DHT22;26461;45.630;9.418;2023-02-28T00:26:31;5.40;99.90
40756;DHT22;26461;45.630;9.418;2023-02-28T00:29:41;5.40;99.90
40756;DHT22;26461;45.630;9.418;2023-02-28T00:32:52;5.40;99.90
40756;DHT22;26461;45.630;9.418;2023-02-28T00:36:07;5.40;99.90
40756;DHT22;26461;45.630;9.418;2023-02-28T00:39:17;5.30;99.90
40756;DHT22;26461;45.630;9.418;2023-02-28T00:42:27;5.30;99.90
40756;DHT22;26461;45.630;9.418;2023-02-28T00:45:37;5.30;99.90
40756;DHT22;26461;45.630;9.418;2023-02-28T00:48:47;5.30;99.90
40756;DHT22;26461;45.630;9.418;2023-02-28T00:51:57;5.30;99.90
40756;DHT22;26461;45.630;9.418;2023-02-28T00:55:07;5.30;99.90
40756;DHT22;26461;45.630;9.418;2023-02-28T00:58:16;5.30;99.90
40756;DHT22;26461;45.630;9.418;2023-02-28T01:01:27;5.30;99.90
40756;DHT22;26461;45.630;9.418;2023-02-28T01:04:37;5.30;99.90
40756;DHT22;26461;45.630;9.418;2023-02-28T01:07:46;5.30;99.90
40756;DHT22;26461;45.630;9.418;2023-02-28T01:10:57;5.20;99.90
40756;DHT22;26461;45.630;9.418;2023-02-28T01:14:07;5.20;99.90
40756;DHT22;26461;45.630;9.418;2023-02-28T01:17:17;5.20;99.90
40756;DHT22;26461;45.630;9.418;2023-02-28T01:20:27;5.20;99.90
40756;DHT22;26461;45.630;9.418;2023-02-28T01:23:37;5.10;99.90
40756;DHT22;26461;45.630;9.418;2023-02-28T01:26:47;5.10;99.90
40756;DHT22;26461;45.630;9.418;2023-02-28T01:29:58;5.10;99.90
40756;DHT22;26461;45.630;9.418;2023-02-28T01:33:08;5.10;99.90
40756;DHT22;26461;45.630;9.418;2023-02-28T01:36:20;5.10;99.90
40756;DHT22;26461;45.630;9.418;2023-02-28T01:39:33;5.10;99.90
40756;DHT22;26461;45.630;9.418;2023-02-28T01:42:42;5.10;99.90
40756;DHT22;26461;45.630;9.418;2023-02-28T01:45:54;5.10;99.90
40756;DHT22;26461;45.630;9.418;2023-02-28T01:49:15;5.10;99.90
40756;DHT22;26461;45.630;9.418;2023-02-28T01:52:21;5.00;99.90
40756;DHT22;26461;45.630;9.418;2023-02-28T01:55:32;5.00;99.90
40756;DHT22;26461;45.630;9.418;2023-02-28T01:58:41;5.00;99.90
40756;DHT22;26461;45.630;9.418;2023-02-28T02:01:52;5.00;99.90
40756;DHT22;26461;45.630;9.418;2023-02-28T02:05:07;5.10;99.90
40756;DHT22;26461;45.630;9.418;2023-02-28T02:08:21;5.00;99.90
40756;DHT22;26461;45.630;9.418;2023-02-28T02:11:32;5.00;99.90
40756;DHT22;26461;45.630;9.418;2023-02-28T02:15:08;5.00;99.90
40756;DHT22;26461;45.630;9.418;2023-02-28T02:22:25;5.00;99.90
40756;DHT22;26461;45.630;9.418;2023-02-28T02:25:59;4.90;99.90
40756;DHT22;26461;45.630;9.418;2023-02-28T02:36:33;4.90;99.90
40756;DHT22;26461;45.630;9.418;2023-02-28T02:39:53;4.90;99.90
40756;DHT22;26461;45.630;9.418;2023-02-28T02:43:12;4.90;99.90
40756;DHT22;26461;45.630;9.418;2023-02-28T02:46:28;4.90;99.90
40756;DHT22;26461;45.630;9.418;2023-02-28T02:49:40;4.90;99.90
40756;DHT22;26461;45.630;9.418;2023-02-28T02:52:56;4.90;99.90
40756;DHT22;26461;45.630;9.418;2023-02-28T02:56:09;4.90;99.90
40756;DHT22;26461;45.630;9.418;2023-02-28T02:59:21;4.90;99.90
40756;DHT22;26461;45.630;9.418;2023-02-28T03:02:35;4.80;99.90
40756;DHT22;26461;45.630;9.418;2023-02-28T03:05:49;4.80;99.90
40756;DHT22;26461;45.630;9.418;2023-02-28T03:09:00;4.80;99.90
40756;DHT22;26461;45.630;9.418;2023-02-28T03:12:12;4.80;99.90
40756;DHT22;26461;45.630;9.418;2023-02-28T03:15:27;4.80;99.90
40756;DHT22;26461;45.630;9.418;2023-02-28T03:26:38;4.70;99.90
40756;DHT22;26461;45.630;9.418;2023-02-28T03:29:37;4.70;99.90
40756;DHT22;26461;45.630;9.418;2023-02-28T03:33:07;4.60;99.90
40756;DHT22;26461;45.630;9.418;2023-02-28T03:36:19;4.50;99.90
40756;DHT22;26461;45.630;9.418;2023-02-28T03:40:06;4.50;99.90
40756;DHT22;26461;45.630;9.418;2023-02-28T03:43:13;4.50;99.90
40756;DHT22;26461;45.630;9.418;2023-02-28T03:46:27;4.40;99.90
40756;DHT22;26461;45.630;9.418;2023-02-28T03:56:38;4.50;99.90
40756;DHT22;26461;45.630;9.418;2023-02-28T03:59:59;4.40;99.90
40756;DHT22;26461;45.630;9.418;2023-02-28T04:03:17;4.40;99.90
40756;DHT22;26461;45.630;9.418;2023-02-28T04:06:27;4.40;99.90
40756;DHT22;26461;45.630;9.418;2023-02-28T04:09:36;4.40;99.90
40756;DHT22;26461;45.630;9.418;2023-02-28T04:12:46;4.40;99.90
40756;DHT22;26461;45.630;9.418;2023-02-28T04:15:56;4.40;99.90
40756;DHT22;26461;45.630;9.418;2023-02-28T04:19:08;4.30;99.90
40756;DHT22;26461;45.630;9.418;2023-02-28T04:22:18;4.30;99.90
40756;DHT22;26461;45.630;9.418;2023-02-28T04:25:29;4.30;99.90
40756;DHT22;26461;45.630;9.418;2023-02-28T04:28:40;4.30;99.90
40756;DHT22;26461;45.630;9.418;2023-02-28T04:31:50;4.30;99.90
40756;DHT22;26461;45.630;9.418;2023-02-28T04:35:00;4.30;99.90
40756;DHT22;26461;45.630;9.418;2023-02-28T04:38:10;4.30;99.90
40756;DHT22;26461;45.630;9.418;2023-02-28T04:41:21;4.30;99.90
40756;DHT22;26461;45.630;9.418;2023-02-28T04:44:32;4.40;99.90
40756;DHT22;26461;45.630;9.418;2023-02-28T04:47:41;4.40;99.90
40756;DHT22;26461;45.630;9.418;2023-02-28T04:50:51;4.40;99.90
40756;DHT22;26461;45.630;9.418;2023-02-28T04:54:01;4.40;99.90
40756;DHT22;26461;45.630;9.418;2023-02-28T04:57:11;4.50;99.90
40756;DHT22;26461;45.630;9.418;2023-02-28T05:00:16;4.50;99.90
40756;DHT22;26461;45.630;9.418;2023-02-28T05:03:26;4.50;99.90
40756;DHT22;26461;45.630;9.418;2023-02-28T05:06:32;4.40;99.90
40756;DHT22;26461;45.630;9.418;2023-02-28T05:09:42;4.50;99.90
40756;DHT22;26461;45.630;9.418;2023-02-28T05:12:52;4.40;99.90
40756;DHT22;26461;45.630;9.418;2023-02-28T05:16:03;4.40;99.90
40756;DHT22;26461;45.630;9.418;2023-02-28T05:19:12;4.40;99.90
40756;DHT22;26461;45.630;9.418;2023-02-28T05:22:22;4.30;99.90
40756;DHT22;26461;45.630;9.418;2023-02-28T05:25:32;4.30;99.90
40756;DHT22;26461;45.630;9.418;2023-02-28T05:28:43;4.30;99.90
40756;DHT22;26461;45.630;9.418;2023-02-28T05:31:53;4.30;99.90
40756;DHT22;26461;45.630;9.418;2023-02-28T05:35:03;4.20;99.90
40756;DHT22;26461;45.630;9.418;2023-02-28T05:38:13;4.20;99.90
40756;DHT22;26461;45.630;9.418;2023-02-28T05:41:23;4.10;99.90
40756;DHT22;26461;45.630;9.418;2023-02-28T05:44:33;4.10;99.90
40756;DHT22;26461;45.630;9.418;2023-02-28T05:47:43;4.00;99.90
40756;DHT22;26461;45.630;9.418;2023-02-28T05:50:53;4.00;99.90
40756;DHT22;26461;45.630;9.418;2023-02-28T05:54:03;4.10;99.90
40756;DHT22;26461;45.630;9.418;2023-02-28T05:57:13;4.00;99.90
40756;DHT22;26461;45.630;9.418;2023-02-28T06:00:23;4.00;99.90
40756;DHT22;26461;45.630;9.418;2023-02-28T06:03:33;4.00;99.90
40756;DHT22;26461;45.630;9.418;2023-02-28T06:06:47;4.00;99.90
40756;DHT22;26461;45.630;9.418;2023-02-28T06:09:58;4.00;99.90
40756;DHT22;26461;45.630;9.418;2023-02-28T06:13:08;4.00;99.90
40756;DHT22;26461;45.630;9.418;2023-02-28T06:16:17;4.00;99.90
40756;DHT22;26461;45.630;9.418;2023-02-28T06:19:27;4.00;99.90
40756;DHT22;26461;45.630;9.418;2023-02-28T06:22:38;4.00;99.90
40756;DHT22;26461;45.630;9.418;2023-02-28T06:25:48;4.00;99.90
40756;DHT22;26461;45.630;9.418;2023-02-28T06:28:59;4.00;99.90
40756;DHT22;26461;45.630;9.418;2023-02-28T06:32:10;3.90;99.90
40756;DHT22;26461;45.630;9.418;2023-02-28T06:35:20;3.80;99.90
40756;DHT22;26461;45.630;9.418;2023-02-28T06:38:30;3.80;99.90
40756;DHT22;26461;45.630;9.418;2023-02-28T06:41:40;3.90;99.90
40756;DHT22;26461;45.630;9.418;2023-02-28T06:44:50;3.90;99.90
40756;DHT22;26461;45.630;9.418;2023-02-28T06:47:59;3.90;99.90
40756;DHT22;26461;45.630;9.418;2023-02-28T06:51:16;3.90;99.90
40756;DHT22;26461;45.630;9.418;2023-02-28T06:54:26;4.00;99.90
40756;DHT22;26461;45.630;9.418;2023-02-28T06:57:36;4.00;99.90
40756;DHT22;26461;45.630;9.418;2023-02-28T07:00:42;4.00;99.90
40756;DHT22;26461;45.630;9.418;2023-02-28T07:03:51;4.00;99.90
40756;DHT22;26461;45.630;9.418;2023-02-28T07:07:01;4.10;99.90
40756;DHT22;26461;45.630;9.418;2023-02-28T07:10:11;4.10;99.90
40756;DHT22;26461;45.630;9.418;2023-02-28T07:13:22;4.10;99.90
40756;DHT22;26461;45.630;9.418;2023-02-28T07:16:32;4.20;99.90
40756;DHT22;26461;45.630;9.418;2023-02-28T07:19:42;4.20;99.90
40756;DHT22;26461;45.630;9.418;2023-02-28T07:22:52;4.20;99.90
40756;DHT22;26461;45.630;9.418;2023-02-28T07:26:07;4.30;99.90
40756;DHT22;26461;45.630;9.418;2023-02-28T07:29:16;4.30;99.90
40756;DHT22;26461;45.630;9.418;2023-02-28T07:32:26;4.30;99.90
40756;DHT22;26461;45.630;9.418;2023-02-28T07:35:36;4.40;99.90
40756;DHT22;26461;45.630;9.418;2023-02-28T07:38:47;4.40;99.90
40756;DHT22;26461;45.630;9.418;2023-02-28T07:41:59;4.50;99.90
40756;DHT22;26461;45.630;9.418;2023-02-28T07:45:11;4.50;99.90
40756;DHT22;26461;45.630;9.418;2023-02-28T07:48:21;4.50;99.90
40756;DHT22;26461;45.630;9.418;2023-02-28T07:51:32;4.50;99.90
40756;DHT22;26461;45.630;9.418;2023-02-28T07:54:42;4.50;99.90
40756;DHT22;26461;45.630;9.418;2023-02-28T07:57:53;4.50;99.90
40756;DHT22;26461;45.630;9.418;2023-02-28T08:01:08;4.50;99.90
40756;DHT22;26461;45.630;9.418;2023-02-28T08:04:18;4.60;99.90
40756;DHT22;26461;45.630;9.418;2023-02-28T08:07:23;4.70;99.90
40756;DHT22;26461;45.630;9.418;2023-02-28T08:10:33;4.70;99.90
40756;DHT22;26461;45.630;9.418;2023-02-28T08:13:44;4.80;99.90
40756;DHT22;26461;45.630;9.418;2023-02-28T08:16:54;4.80;99.90
40756;DHT22;26461;45.630;9.418;2023-02-28T08:20:04;4.90;99.90
40756;DHT22;26461;45.630;9.418;2023-02-28T08:23:14;4.90;99.90
40756;DHT22;26461;45.630;9.418;2023-02-28T08:26:24;4.90;99.90
40756;DHT22;26461;45.630;9.418;2023-02-28T08:29:36;5.00;99.90
40756;DHT22;26461;45.630;9.418;2023-02-28T08:32:46;4.90;99.90
40756;DHT22;26461;45.630;9.418;2023-02-28T08:35:56;5.00;99.90
40756;DHT22;26461;45.630;9.418;2023-02-28T08:39:03;5.00;99.90
40756;DHT22;26461;45.630;9.418;2023-02-28T08:42:12;5.00;99.90
40756;DHT22;26461;45.630;9.418;2023-02-28T08:45:22;5.00;99.90
40756;DHT22;26461;45.630;9.418;2023-02-28T08:48:34;4.90;99.90
40756;DHT22;26461;45.630;9.418;2023-02-28T08:51:44;5.10;99.90
40756;DHT22;26461;45.630;9.418;2023-02-28T08:54:54;5.10;99.90
40756;DHT22;26461;45.630;9.418;2023-02-28T08:58:04;5.20;99.90
40756;DHT22;26461;45.630;9.418;2023-02-28T09:01:28;5.20;99.90
40756;DHT22;26461;45.630;9.418;2023-02-28T09:04:38;5.20;99.90
40756;DHT22;26461;45.630;9.418;2023-02-28T09:07:47;5.20;99.90
40756;DHT22;26461;45.630;9.418;2023-02-28T09:10:58;5.30;99.90
40756;DHT22;26461;45.630;9.418;2023-02-28T09:14:08;5.30;99.90
40756;DHT22;26461;45.630;9.418;2023-02-28T09:17:18;5.30;99.90
40756;DHT22;26461;45.630;9.418;2023-02-28T09:20:29;5.30;99.90
40756;DHT22;26461;45.630;9.418;2023-02-28T09:23:39;5.40;99.90
40756;DHT22;26461;45.630;9.418;2023-02-28T09:26:49;5.40;99.90
40756;DHT22;26461;45.630;9.418;2023-02-28T09:29:59;5.50;99.90
40756;DHT22;26461;45.630;9.418;2023-02-28T09:33:03;5.50;99.90
40756;DHT22;26461;45.630;9.418;2023-02-28T09:36:08;5.50;99.90
40756;DHT22;26461;45.630;9.418;2023-02-28T09:39:18;5.60;99.90
40756;DHT22;26461;45.630;9.418;2023-02-28T09:42:32;5.60;99.90
40756;DHT22;26461;45.630;9.418;2023-02-28T09:45:51;5.70;99.90
40756;DHT22;26461;45.630;9.418;2023-02-28T09:49:08;5.80;99.90
40756;DHT22;26461;45.630;9.418;2023-02-28T09:52:30;5.90;99.90
40756;DHT22;26461;45.630;9.418;2023-02-28T09:55:54;5.90;99.90
40756;DHT22;26461;45.630;9.418;2023-02-28T10:06:19;6.00;99.90
40756;DHT22;26461;45.630;9.418;2023-02-28T10:09:33;6.00;99.90
40756;DHT22;26461;45.630;9.418;2023-02-28T10:12:46;6.10;99.90
40756;DHT22;26461;45.630;9.418;2023-02-28T10:16:22;6.10;99.90
40756;DHT22;26461;45.630;9.418;2023-02-28T10:23:46;6.20;99.90
40756;DHT22;26461;45.630;9.418;2023-02-28T10:26:37;6.20;99.90
40756;DHT22;26461;45.630;9.418;2023-02-28T10:29:52;6.30;99.90
40756;DHT22;26461;45.630;9.418;2023-02-28T10:33:03;6.40;99.90
40756;DHT22;26461;45.630;9.418;2023-02-28T10:36:15;6.40;99.90
40756;DHT22;26461;45.630;9.418;2023-02-28T10:39:42;6.40;99.90
40756;DHT22;26461;45.630;9.418;2023-02-28T10:43:05;6.40;99.90
40756;DHT22;26461;45.630;9.418;2023-02-28T10:46:18;6.50;99.90
40756;DHT22;26461;45.630;9.418;2023-02-28T10:49:34;6.50;99.90
40756;DHT22;26461;45.630;9.418;2023-02-28T10:52:42;6.60;99.90
40756;DHT22;26461;45.630;9.418;2023-02-28T10:59:28;6.80;99.90
40756;DHT22;26461;45.630;9.418;2023-02-28T11:02:37;6.80;99.90
40756;DHT22;26461;45.630;9.418;2023-02-28T11:05:48;6.80;99.90
40756;DHT22;26461;45.630;9.418;2023-02-28T11:09:04;6.80;99.90
40756;DHT22;26461;45.630;9.418;2023-02-28T11:12:31;6.80;99.90
40756;DHT22;26461;45.630;9.418;2023-02-28T11:15:37;6.80;99.90
40756;DHT22;26461;45.630;9.418;2023-02-28T11:18:54;6.80;99.90
40756;DHT22;26461;45.630;9.418;2023-02-28T11:22:05;6.70;99.90
40756;DHT22;26461;45.630;9.418;2023-02-28T11:25:30;6.70;99.90
40756;DHT22;26461;45.630;9.418;2023-02-28T11:28:41;6.80;99.90
40756;DHT22;26461;45.630;9.418;2023-02-28T11:35:33;6.90;99.90
40756;DHT22;26461;45.630;9.418;2023-02-28T11:38:46;7.10;99.90
40756;DHT22;26461;45.630;9.418;2023-02-28T11:42:19;7.20;99.90
40756;DHT22;26461;45.630;9.418;2023-02-28T11:45:55;7.20;99.90
40756;DHT22;26461;45.630;9.418;2023-02-28T11:56:41;7.40;99.90
40756;DHT22;26461;45.630;9.418;2023-02-28T11:59:56;7.40;99.90
40756;DHT22;26461;45.630;9.418;2023-02-28T12:06:44;7.60;99.90
40756;DHT22;26461;45.630;9.418;2023-02-28T12:13:28;7.70;99.90
40756;DHT22;26461;45.630;9.418;2023-02-28T12:20:10;7.80;99.90
40756;DHT22;26461;45.630;9.418;2023-02-28T12:27:14;8.10;99.90
40756;DHT22;26461;45.630;9.418;2023-02-28T12:30:27;8.30;99.90
40756;DHT22;26461;45.630;9.418;2023-02-28T12:33:42;8.40;99.50
40756;DHT22;26461;45.630;9.418;2023-02-28T12:36:55;8.40;99.30
40756;DHT22;26461;45.630;9.418;2023-02-28T12:43:34;8.50;99.50
40756;DHT22;26461;45.630;9.418;2023-02-28T12:46:51;8.60;99.60
40756;DHT22;26461;45.630;9.418;2023-02-28T12:50:07;8.70;99.10
40756;DHT22;26461;45.630;9.418;2023-02-28T12:57:06;9.00;99.00
40756;DHT22;26461;45.630;9.418;2023-02-28T13:00:20;9.10;98.90
40756;DHT22;26461;45.630;9.418;2023-02-28T13:03:36;9.20;99.00
40756;DHT22;26461;45.630;9.418;2023-02-28T13:10:52;9.40;98.10
40756;DHT22;26461;45.630;9.418;2023-02-28T13:14:16;9.50;97.90
40756;DHT22;26461;45.630;9.418;2023-02-28T13:17:28;9.60;98.00
40756;DHT22;26461;45.630;9.418;2023-02-28T13:20:35;9.80;98.10
40756;DHT22;26461;45.630;9.418;2023-02-28T13:34:14;10.30;97.30
40756;DHT22;26461;45.630;9.418;2023-02-28T13:40:33;10.30;97.10
40756;DHT22;26461;45.630;9.418;2023-02-28T13:50:47;9.90;96.60
40756;DHT22;26461;45.630;9.418;2023-02-28T13:54:04;9.80;96.80
40756;DHT22;26461;45.630;9.418;2023-02-28T14:04:57;9.60;97.40
40756;DHT22;26461;45.630;9.418;2023-02-28T14:08:17;9.60;97.50
40756;DHT22;26461;45.630;9.418;2023-02-28T14:11:33;9.60;97.50
40756;DHT22;26461;45.630;9.418;2023-02-28T14:17:54;9.60;97.60
40756;DHT22;26461;45.630;9.418;2023-02-28T14:21:31;9.70;97.60
40756;DHT22;26461;45.630;9.418;2023-02-28T14:28:46;9.70;97.30
40756;DHT22;26461;45.630;9.418;2023-02-28T14:39:07;9.90;97.20
40756;DHT22;26461;45.630;9.418;2023-02-28T14:42:35;9.90;96.90
40756;DHT22;26461;45.630;9.418;2023-02-28T14:45:50;10.00;96.50
40756;DHT22;26461;45.630;9.418;2023-02-28T14:49:01;10.00;96.60
40756;DHT22;26461;45.630;9.418;2023-02-28T14:52:17;10.00;96.60
40756;DHT22;26461;45.630;9.418;2023-02-28T14:55:31;10.10;96.70
40756;DHT22;26461;45.630;9.418;2023-02-28T14:58:51;10.10;96.40
40756;DHT22;26461;45.630;9.418;2023-02-28T15:02:21;10.20;96.40
40756;DHT22;26461;45.630;9.418;2023-02-28T15:05:33;10.30;96.40
40756;DHT22;26461;45.630;9.418;2023-02-28T15:08:44;10.30;96.10
40756;DHT22;26461;45.630;9.418;2023-02-28T15:11:54;10.40;96.00
40756;DHT22;26461;45.630;9.418;2023-02-28T15:15:06;10.40;95.90
40756;DHT22;26461;45.630;9.418;2023-02-28T15:21:38;10.40;95.60
40756;DHT22;26461;45.630;9.418;2023-02-28T15:24:50;10.40;96.00
40756;DHT22;26461;45.630;9.418;2023-02-28T15:27:56;10.50;96.10
40756;DHT22;26461;45.630;9.418;2023-02-28T15:31:20;10.70;96.10
40756;DHT22;26461;45.630;9.418;2023-02-28T15:34:42;10.80;95.90
40756;DHT22;26461;45.630;9.418;2023-02-28T15:38:00;11.10;95.60
40756;DHT22;26461;45.630;9.418;2023-02-28T15:41:27;11.20;95.60
40756;DHT22;26461;45.630;9.418;2023-02-28T15:44:37;11.40;95.50
40756;DHT22;26461;45.630;9.418;2023-02-28T15:47:47;11.60;95.20
40756;DHT22;26461;45.630;9.418;2023-02-28T15:51:07;11.70;95.00
40756;DHT22;26461;45.630;9.418;2023-02-28T15:54:23;11.90;94.50
40756;DHT22;26461;45.630;9.418;2023-02-28T15:57:34;12.00;93.40
40756;DHT22;26461;45.630;9.418;2023-02-28T16:00:44;12.10;92.70
40756;DHT22;26461;45.630;9.418;2023-02-28T16:04:03;12.10;93.00
40756;DHT22;26461;45.630;9.418;2023-02-28T16:07:14;12.10;92.70
40756;DHT22;26461;45.630;9.418;2023-02-28T16:10:25;12.00;92.40
40756;DHT22;26461;45.630;9.418;2023-02-28T16:13:36;11.80;91.70
40756;DHT22;26461;45.630;9.418;2023-02-28T16:16:52;11.70;91.60
40756;DHT22;26461;45.630;9.418;2023-02-28T16:20:11;11.40;91.70
40756;DHT22;26461;45.630;9.418;2023-02-28T16:23:22;11.20;91.90
40756;DHT22;26461;45.630;9.418;2023-02-28T16:26:32;10.90;92.10
40756;DHT22;26461;45.630;9.418;2023-02-28T16:29:43;10.80;92.40
40756;DHT22;26461;45.630;9.418;2023-02-28T16:32:55;10.70;92.90
40756;DHT22;26461;45.630;9.418;2023-02-28T16:36:06;10.60;92.90
40756;DHT22;26461;45.630;9.418;2023-02-28T16:39:19;10.50;93.40
40756;DHT22;26461;45.630;9.418;2023-02-28T16:42:32;10.50;93.80
40756;DHT22;26461;45.630;9.418;2023-02-28T16:45:42;10.50;93.80
40756;DHT22;26461;45.630;9.418;2023-02-28T16:48:52;10.50;93.90
40756;DHT22;26461;45.630;9.418;2023-02-28T16:52:02;10.50;93.80
40756;DHT22;26461;45.630;9.418;2023-02-28T16:55:12;10.50;93.60
40756;DHT22;26461;45.630;9.418;2023-02-28T16:58:22;10.40;93.40
40756;DHT22;26461;45.630;9.418;2023-02-28T17:01:35;10.30;93.50
40756;DHT22;26461;45.630;9.418;2023-02-28T17:04:45;10.20;93.60
40756;DHT22;26461;45.630;9.418;2023-02-28T17:07:55;10.00;93.70
40756;DHT22;26461;45.630;9.418;2023-02-28T17:11:04;9.90;93.80
40756;DHT22;26461;45.630;9.418;2023-02-28T17:14:15;9.70;94.10
40756;DHT22;26461;45.630;9.418;2023-02-28T17:17:25;9.50;94.30
40756;DHT22;26461;45.630;9.418;2023-02-28T17:20:35;9.40;94.30
40756;DHT22;26461;45.630;9.418;2023-02-28T17:23:45;9.20;94.40
40756;DHT22;26461;45.630;9.418;2023-02-28T17:26:50;9.10;94.60
40756;DHT22;26461;45.630;9.418;2023-02-28T17:30:00;8.90;94.80
40756;DHT22;26461;45.630;9.418;2023-02-28T17:33:10;8.80;95.10
40756;DHT22;26461;45.630;9.418;2023-02-28T17:36:22;8.70;95.30
40756;DHT22;26461;45.630;9.418;2023-02-28T17:39:34;8.60;95.60
40756;DHT22;26461;45.630;9.418;2023-02-28T17:42:44;8.60;95.90
40756;DHT22;26461;45.630;9.418;2023-02-28T17:45:54;8.50;96.10
40756;DHT22;26461;45.630;9.418;2023-02-28T17:49:04;8.50;96.10
40756;DHT22;26461;45.630;9.418;2023-02-28T17:52:13;8.40;96.10
40756;DHT22;26461;45.630;9.418;2023-02-28T17:55:23;8.30;96.10
40756;DHT22;26461;45.630;9.418;2023-02-28T17:58:33;8.20;96.00
40756;DHT22;26461;45.630;9.418;2023-02-28T18:01:39;8.20;96.30
40756;DHT22;26461;45.630;9.418;2023-02-28T18:04:43;8.10;96.90
40756;DHT22;26461;45.630;9.418;2023-02-28T18:07:53;8.10;97.20
40756;DHT22;26461;45.630;9.418;2023-02-28T18:11:03;8.10;97.50
40756;DHT22;26461;45.630;9.418;2023-02-28T18:14:14;8.10;97.50
40756;DHT22;26461;45.630;9.418;2023-02-28T18:17:25;8.00;97.60
40756;DHT22;26461;45.630;9.418;2023-02-28T18:20:35;8.00;97.70
40756;DHT22;26461;45.630;9.418;2023-02-28T18:23:45;7.90;98.70
40756;DHT22;26461;45.630;9.418;2023-02-28T18:26:58;8.00;99.00
40756;DHT22;26461;45.630;9.418;2023-02-28T18:30:10;8.00;98.60
40756;DHT22;26461;45.630;9.418;2023-02-28T18:33:20;7.90;98.40
40756;DHT22;26461;45.630;9.418;2023-02-28T18:36:29;7.90;98.40
40756;DHT22;26461;45.630;9.418;2023-02-28T18:39:39;7.80;98.30
40756;DHT22;26461;45.630;9.418;2023-02-28T18:42:49;7.80;98.20
40756;DHT22;26461;45.630;9.418;2023-02-28T18:46:14;7.70;98.30
40756;DHT22;26461;45.630;9.418;2023-02-28T18:49:24;7.60;98.40
40756;DHT22;26461;45.630;9.418;2023-02-28T18:52:29;7.50;98.50
40756;DHT22;26461;45.630;9.418;2023-02-28T18:55:39;7.50;98.70
40756;DHT22;26461;45.630;9.418;2023-02-28T18:58:50;7.40;98.80
40756;DHT22;26461;45.630;9.418;2023-02-28T19:02:00;7.40;99.00
40756;DHT22;26461;45.630;9.418;2023-02-28T19:05:10;7.30;99.10
40756;DHT22;26461;45.630;9.418;2023-02-28T19:08:15;7.30;99.20
40756;DHT22;26461;45.630;9.418;2023-02-28T19:11:21;7.30;99.30
40756;DHT22;26461;45.630;9.418;2023-02-28T19:14:26;7.20;99.40
40756;DHT22;26461;45.630;9.418;2023-02-28T19:17:36;7.20;99.80
40756;DHT22;26461;45.630;9.418;2023-02-28T19:20:41;7.20;99.50
40756;DHT22;26461;45.630;9.418;2023-02-28T19:23:51;7.20;99.60
40756;DHT22;26461;45.630;9.418;2023-02-28T19:26:56;7.10;99.50
40756;DHT22;26461;45.630;9.418;2023-02-28T19:30:06;7.00;99.60
40756;DHT22;26461;45.630;9.418;2023-02-28T19:33:16;6.80;99.70
40756;DHT22;26461;45.630;9.418;2023-02-28T19:36:26;6.70;99.90
40756;DHT22;26461;45.630;9.418;2023-02-28T19:39:37;6.60;99.90
40756;DHT22;26461;45.630;9.418;2023-02-28T19:42:49;6.60;99.90
40756;DHT22;26461;45.630;9.418;2023-02-28T19:45:54;6.50;99.90
40756;DHT22;26461;45.630;9.418;2023-02-28T19:48:59;6.50;99.90
40756;DHT22;26461;45.630;9.418;2023-02-28T19:52:09;6.50;99.90
40756;DHT22;26461;45.630;9.418;2023-02-28T19:55:20;6.50;99.90
40756;DHT22;26461;45.630;9.418;2023-02-28T19:58:31;6.50;99.90
40756;DHT22;26461;45.630;9.418;2023-02-28T20:01:40;6.50;99.90
40756;DHT22;26461;45.630;9.418;2023-02-28T20:04:50;6.50;99.90
40756;DHT22;26461;45.630;9.418;2023-02-28T20:08:00;6.50;99.90
40756;DHT22;26461;45.630;9.418;2023-02-28T20:11:14;6.50;99.90
40756;DHT22;26461;45.630;9.418;2023-02-28T20:14:25;6.60;99.90
40756;DHT22;26461;45.630;9.418;2023-02-28T20:17:34;6.50;99.90
40756;DHT22;26461;45.630;9.418;2023-02-28T20:20:44;6.50;99.90
40756;DHT22;26461;45.630;9.418;2023-02-28T20:23:54;6.40;99.90
40756;DHT22;26461;45.630;9.418;2023-02-28T20:27:04;6.40;99.90
40756;DHT22;26461;45.630;9.418;2023-02-28T20:30:14;6.30;99.90
40756;DHT22;26461;45.630;9.418;2023-02-28T20:33:24;6.30;99.90
40756;DHT22;26461;45.630;9.418;2023-02-28T20:36:34;6.20;99.90
40756;DHT22;26461;45.630;9.418;2023-02-28T20:39:44;6.20;99.90
40756;DHT22;26461;45.630;9.418;2023-02-28T20:42:55;6.20;99.90
40756;DHT22;26461;45.630;9.418;2023-02-28T20:46:05;6.20;99.90
40756;DHT22;26461;45.630;9.418;2023-02-28T20:49:15;6.20;99.90
40756;DHT22;26461;45.630;9.418;2023-02-28T20:52:24;6.20;99.90
40756;DHT22;26461;45.630;9.418;2023-02-28T20:55:34;6.10;99.90
40756;DHT22;26461;45.630;9.418;2023-02-28T20:58:46;6.10;99.90
40756;DHT22;26461;45.630;9.418;2023-02-28T21:01:52;6.10;99.90
40756;DHT22;26461;45.630;9.418;2023-02-28T21:05:04;6.00;99.90
40756;DHT22;26461;45.630;9.418;2023-02-28T21:08:15;6.00;99.90
40756;DHT22;26461;45.630;9.418;2023-02-28T21:11:27;6.00;99.90
40756;DHT22;26461;45.630;9.418;2023-02-28T21:14:37;6.00;99.90
40756;DHT22;26461;45.630;9.418;2023-02-28T21:17:47;6.00;99.90
40756;DHT22;26461;45.630;9.418;2023-02-28T21:21:06;6.00;99.90
40756;DHT22;26461;45.630;9.418;2023-02-28T21:24:18;6.00;99.90
40756;DHT22;26461;45.630;9.418;2023-02-28T21:27:28;5.90;99.90
40756;DHT22;26461;45.630;9.418;2023-02-28T21:30:38;5.90;99.90
40756;DHT22;26461;45.630;9.418;2023-02-28T21:33:48;5.90;99.90
40756;DHT22;26461;45.630;9.418;2023-02-28T21:36:53;5.90;99.90
40756;DHT22;26461;45.630;9.418;2023-02-28T21:40:03;5.90;99.90
40756;DHT22;26461;45.630;9.418;2023-02-28T21:43:13;5.90;99.90
40756;DHT22;26461;45.630;9.418;2023-02-28T21:46:26;5.90;99.90
40756;DHT22;26461;45.630;9.418;2023-02-28T21:49:36;5.90;99.90
40756;DHT22;26461;45.630;9.418;2023-02-28T21:52:47;5.90;99.90
40756;DHT22;26461;45.630;9.418;2023-02-28T21:56:11;5.80;99.90
40756;DHT22;26461;45.630;9.418;2023-02-28T21:59:20;5.80;99.90
40756;DHT22;26461;45.630;9.418;2023-02-28T22:02:30;5.80;99.90
40756;DHT22;26461;45.630;9.418;2023-02-28T22:05:40;5.80;99.90
40756;DHT22;26461;45.630;9.418;2023-02-28T22:08:55;5.80;99.90
40756;DHT22;26461;45.630;9.418;2023-02-28T22:12:05;5.70;99.90
40756;DHT22;26461;45.630;9.418;2023-02-28T22:15:17;5.70;99.90
40756;DHT22;26461;45.630;9.418;2023-02-28T22:18:26;5.60;99.90
40756;DHT22;26461;45.630;9.418;2023-02-28T22:21:37;5.60;99.90
40756;DHT22;26461;45.630;9.418;2023-02-28T22:24:48;5.60;99.90
40756;DHT22;26461;45.630;9.418;2023-02-28T22:27:57;5.50;99.90
40756;DHT22;26461;45.630;9.418;2023-02-28T22:34:21;5.40;99.90
40756;DHT22;26461;45.630;9.418;2023-02-28T22:37:32;5.40;99.90